| time (UTC) | temp F | wind direction | speed MPH | gust MPH | rain 1hr in | rain 24hr in | rain mn in | humidity % | barometer mb |
| 20260507114528 | 40 | 346 | 0.0 | 0.0 | 0.00 | 0.00 | 0.00 | 79 | 1015.2 |
| 20260507113023 | 40 | 347 | 0.0 | 0.0 | 0.00 | 0.00 | 0.00 | 79 | 1015.0 |
| 20260507111521 | 40 | 346 | 0.0 | 0.0 | 0.00 | 0.00 | 0.00 | 78 | 1015.0 |
| 20260507110028 | 40 | 346 | 0.0 | 0.0 | 0.00 | 0.00 | 0.00 | 79 | 1015.0 |
| 20260507104520 | 40 | 346 | 0.0 | 0.0 | 0.00 | 0.00 | 0.00 | 79 | 1015.1 |
| 20260507103017 | 40 | 347 | 0.0 | 1.0 | 0.00 | 0.00 | 0.00 | 80 | 1015.1 |
| 20260507101516 | 40 | 347 | 0.0 | 0.0 | 0.00 | 0.00 | 0.00 | 75 | 1015.3 |
| 20260507100021 | 40 | 347 | 0.0 | 0.0 | 0.00 | 0.00 | 0.00 | 73 | 1015.5 |
| 20260507094512 | 40 | 347 | 0.0 | 0.0 | 0.00 | 0.00 | 0.00 | 73 | 1015.3 |
| 20260507093018 | 41 | 347 | 0.0 | 0.0 | 0.00 | 0.00 | 0.00 | 72 | 1015.4 |
| 20260507091510 | 41 | 347 | 0.0 | 0.0 | 0.00 | 0.00 | 0.00 | 72 | 1015.4 |
| 20260507090008 | 42 | 347 | 0.0 | 0.0 | 0.00 | 0.00 | 0.00 | 72 | 1015.3 |
| 20260507084508 | 42 | 347 | 0.0 | 0.0 | 0.00 | 0.00 | 0.00 | 72 | 1015.2 |
| 20260507083003 | 43 | 347 | 0.0 | 0.0 | 0.00 | 0.00 | 0.00 | 71 | 1015.4 |
| 20260507081505 | 43 | 347 | 0.0 | 0.0 | 0.00 | 0.00 | 0.00 | 72 | 1015.4 |
| 20260507080001 | 44 | 347 | 0.0 | 0.0 | 0.00 | 0.00 | 0.00 | 72 | 1015.4 |
| 20260507074612 | 44 | 347 | 0.0 | 0.0 | 0.00 | 0.00 | 0.00 | 72 | 1015.5 |
| 20260507073058 | 44 | 347 | 0.0 | 0.0 | 0.00 | 0.00 | 0.00 | 73 | 1015.6 |
| 20260507071557 | 44 | 347 | 0.0 | 0.0 | 0.00 | 0.00 | 0.00 | 72 | 1015.7 |
| 20260507070109 | 44 | 347 | 0.0 | 0.0 | 0.00 | 0.00 | 0.00 | 73 | 1015.9 |
| 20260507064554 | 43 | 347 | 0.0 | 0.0 | 0.00 | 0.01 | 0.00 | 71 | 1016.0 |
| 20260507063057 | 43 | 347 | 0.0 | 0.0 | 0.00 | 0.01 | 0.00 | 69 | 1016.0 |
| 20260507061549 | 43 | 347 | 0.0 | 0.0 | 0.00 | 0.01 | 0.00 | 68 | 1016.1 |
| 20260507060049 | 43 | 347 | 0.0 | 0.0 | 0.00 | 0.01 | 0.00 | 68 | 1016.2 |
| 20260507054550 | 43 | 347 | 0.0 | 0.0 | 0.00 | 0.01 | 0.00 | 69 | 1016.2 |
| 20260507053044 | 43 | 347 | 0.0 | 1.0 | 0.00 | 0.01 | 0.00 | 68 | 1016.2 |
| 20260507051543 | 43 | 338 | 0.0 | 0.0 | 0.00 | 0.01 | 0.00 | 66 | 1016.2 |
| 20260507050039 | 43 | 338 | 0.0 | 0.0 | 0.00 | 0.01 | 0.00 | 64 | 1016.2 |
| 20260507044542 | 43 | 338 | 0.0 | 0.0 | 0.00 | 0.01 | 0.01 | 64 | 1016.2 |
| 20260507043039 | 43 | 338 | 0.0 | 0.0 | 0.00 | 0.01 | 0.01 | 65 | 1016.3 |
| 20260507041535 | 44 | 338 | 0.0 | 0.0 | 0.00 | 0.01 | 0.01 | 61 | 1016.2 |
| 20260507040034 | 44 | 338 | 0.0 | 0.0 | 0.00 | 0.01 | 0.01 | 61 | 1016.3 |
| 20260507034537 | 45 | 338 | 0.0 | 0.0 | 0.00 | 0.01 | 0.01 | 60 | 1016.3 |
| 20260507033032 | 46 | 338 | 0.0 | 0.0 | 0.00 | 0.01 | 0.01 | 60 | 1016.3 |
| 20260507031531 | 46 | 338 | 0.0 | 0.0 | 0.00 | 0.01 | 0.01 | 59 | 1016.3 |
| 20260507030032 | 47 | 338 | 0.0 | 0.0 | 0.00 | 0.01 | 0.01 | 58 | 1016.3 |
| 20260507024530 | 48 | 338 | 0.0 | 0.0 | 0.00 | 0.01 | 0.01 | 56 | 1016.2 |
| 20260507023030 | 49 | 338 | 0.0 | 0.0 | 0.00 | 0.01 | 0.01 | 54 | 1016.1 |
| 20260507021531 | 51 | 338 | 0.0 | 0.0 | 0.00 | 0.01 | 0.01 | 51 | 1016.0 |
| 20260507020040 | 53 | 338 | 0.0 | 0.0 | 0.00 | 0.01 | 0.01 | 50 | 1015.8 |
| 20260507014529 | 54 | 338 | 0.0 | 0.0 | 0.00 | 0.01 | 0.01 | 48 | 1015.6 |
| 20260507013045 | 56 | 338 | 0.0 | 0.0 | 0.00 | 0.01 | 0.01 | 43 | 1015.6 |
| 20260507011528 | 57 | 338 | 0.0 | 0.0 | 0.00 | 0.01 | 0.01 | 41 | 1015.5 |
| 20260507010035 | 58 | 338 | 0.0 | 0.0 | 0.00 | 0.01 | 0.01 | 39 | 1015.3 |
| 20260507004527 | 59 | 337 | 0.0 | 2.0 | 0.00 | 0.01 | 0.01 | 38 | 1015.3 |
| 20260507003027 | 59 | 224 | 0.0 | 6.0 | 0.00 | 0.01 | 0.01 | 38 | 1015.2 |
| 20260507001530 | 59 | 234 | 1.0 | 8.0 | 0.00 | 0.01 | 0.01 | 36 | 1015.3 |
| 20260507000026 | 60 | 245 | 2.0 | 7.0 | 0.00 | 0.01 | 0.01 | 36 | 1015.2 |
| 20260506234531 | 61 | 186 | 0.0 | 6.0 | 0.00 | 0.01 | 0.01 | 37 | 1015.1 |
| 20260506233036 | 61 | 265 | 1.0 | 4.0 | 0.00 | 0.01 | 0.01 | 36 | 1015.1 |
| 20260506231528 | 61 | 259 | 2.0 | 9.0 | 0.00 | 0.01 | 0.01 | 36 | 1015.3 |
| 20260506230027 | 61 | 264 | 5.0 | 11.0 | 0.00 | 0.01 | 0.01 | 34 | 1015.2 |
| 20260506224523 | 61 | 297 | 3.0 | 11.0 | 0.00 | 0.01 | 0.01 | 35 | 1015.4 |
| 20260506223023 | 62 | 321 | 2.0 | 10.0 | 0.00 | 0.01 | 0.01 | 34 | 1015.6 |
| 20260506221522 | 63 | 126 | 4.0 | 10.0 | 0.00 | 0.01 | 0.01 | 33 | 1015.4 |
| 20260506220028 | 63 | 27 | 2.0 | 11.0 | 0.00 | 0.01 | 0.01 | 37 | 1015.4 |
| 20260506214520 | 63 | 19 | 3.0 | 11.0 | 0.00 | 0.02 | 0.01 | 37 | 1015.5 |
| 20260506213019 | 62 | 225 | 4.0 | 10.0 | 0.00 | 0.02 | 0.01 | 36 | 1015.5 |
| 20260506211525 | 62 | 248 | 6.0 | 11.0 | 0.00 | 0.02 | 0.01 | 34 | 1015.7 |
| 20260506210025 | 62 | 177 | 2.0 | 16.0 | 0.00 | 0.02 | 0.01 | 36 | 1015.8 |
| 20260506204515 | 62 | 275 | 6.0 | 10.0 | 0.00 | 0.02 | 0.01 | 36 | 1016.0 |
| 20260506203012 | 61 | 267 | 3.0 | 9.0 | 0.00 | 0.02 | 0.01 | 38 | 1016.1 |
| 20260506201511 | 60 | 173 | 3.0 | 15.0 | 0.00 | 0.02 | 0.01 | 38 | 1016.4 |
| 20260506200023 | 60 | 283 | 5.0 | 12.0 | 0.00 | 0.02 | 0.01 | 38 | 1016.6 |
| 20260506194509 | 58 | 49 | 2.0 | 9.0 | 0.00 | 0.02 | 0.01 | 41 | 1016.6 |
| 20260506193008 | 58 | 229 | 6.0 | 12.0 | 0.00 | 0.02 | 0.01 | 39 | 1016.8 |
| 20260506191508 | 58 | 264 | 5.0 | 11.0 | 0.00 | 0.02 | 0.01 | 38 | 1016.8 |
| 20260506190008 | 58 | 255 | 2.0 | 7.0 | 0.00 | 0.02 | 0.01 | 43 | 1016.8 |
| 20260506184507 | 57 | 262 | 7.0 | 15.0 | 0.00 | 0.02 | 0.01 | 39 | 1016.7 |
| 20260506183006 | 58 | 273 | 3.0 | 9.0 | 0.00 | 0.02 | 0.01 | 39 | 1016.6 |
| 20260506181509 | 58 | 250 | 4.0 | 11.0 | 0.00 | 0.02 | 0.01 | 41 | 1016.9 |
| 20260506180013 | 59 | 246 | 7.0 | 13.0 | 0.00 | 0.02 | 0.01 | 38 | 1016.9 |
| 20260506174503 | 59 | 271 | 5.0 | 11.0 | 0.00 | 0.04 | 0.01 | 39 | 1017.0 |
| 20260506173003 | 60 | 268 | 5.0 | 12.0 | 0.00 | 0.04 | 0.01 | 39 | 1017.0 |
| 20260506171502 | 60 | 297 | 4.0 | 9.0 | 0.00 | 0.04 | 0.01 | 40 | 1016.9 |
| 20260506170103 | 59 | 261 | 3.0 | 8.0 | 0.00 | 0.04 | 0.01 | 42 | 1016.9 |
| 20260506164613 | 59 | 5 | 5.0 | 10.0 | 0.00 | 0.07 | 0.01 | 42 | 1016.9 |
| 20260506163102 | 59 | 226 | 6.0 | 12.0 | 0.00 | 0.07 | 0.01 | 41 | 1017.0 |
| 20260506161554 | 59 | 314 | 2.0 | 9.0 | 0.00 | 0.07 | 0.01 | 43 | 1016.8 |
| 20260506160105 | 58 | 340 | 2.0 | 10.0 | 0.00 | 0.07 | 0.01 | 47 | 1016.8 |
| 20260506154552 | 57 | 253 | 3.0 | 9.0 | 0.00 | 0.14 | 0.01 | 48 | 1016.7 |
| 20260506153044 | 57 | 261 | 3.0 | 8.0 | 0.00 | 0.14 | 0.01 | 51 | 1016.7 |
| 20260506151542 | 56 | 287 | 4.0 | 8.0 | 0.00 | 0.14 | 0.01 | 54 | 1016.6 |
| 20260506150038 | 55 | 314 | 1.0 | 8.0 | 0.00 | 0.14 | 0.01 | 61 | 1016.6 |
| 20260506144534 | 54 | 344 | 1.0 | 4.0 | 0.00 | 0.18 | 0.01 | 65 | 1016.1 |
| 20260506143034 | 53 | 123 | 1.0 | 5.0 | 0.00 | 0.18 | 0.01 | 68 | 1016.2 |
| 20260506141527 | 51 | 248 | 2.0 | 4.0 | 0.00 | 0.18 | 0.01 | 70 | 1016.1 |
| 20260506140023 | 50 | 222 | 2.0 | 5.0 | 0.00 | 0.18 | 0.01 | 74 | 1015.8 |
| 20260506134520 | 49 | 311 | 1.0 | 3.0 | 0.00 | 0.18 | 0.01 | 79 | 1015.8 |
| 20260506133018 | 47 | 336 | 0.0 | 5.0 | 0.00 | 0.18 | 0.01 | 81 | 1015.7 |
| 20260506131517 | 47 | 270 | 0.0 | 3.0 | 0.00 | 0.18 | 0.01 | 83 | 1015.4 |
| 20260506130016 | 46 | 250 | 0.0 | 2.0 | 0.00 | 0.18 | 0.01 | 85 | 1015.2 |
| 20260506124512 | 45 | 250 | 0.0 | 2.0 | 0.00 | 0.18 | 0.01 | 86 | 1014.9 |
| 20260506123011 | 45 | 250 | 0.0 | 2.0 | 0.00 | 0.18 | 0.01 | 85 | 1014.9 |
| 20260506121510 | 45 | 250 | 0.0 | 0.0 | 0.00 | 0.18 | 0.01 | 85 | 1015.1 |
| 20260506120010 | 45 | 250 | 0.0 | 0.0 | 0.00 | 0.18 | 0.01 | 85 | 1014.9 |